createdAt,value
2023-09-06T00:01:41.142Z,101263.94
2023-09-06T00:04:43.759Z,101256.44
2023-09-06T00:07:46.251Z,101264.31
2023-09-06T00:10:49.106Z,101268.25
2023-09-06T00:13:51.495Z,101267.06
2023-09-06T00:16:53.938Z,101275.31
2023-09-06T00:19:56.346Z,101275.72
2023-09-06T00:23:00.948Z,101274.16
2023-09-06T00:26:03.715Z,101261.53
2023-09-06T00:29:09.197Z,101268.22
2023-09-06T00:32:12.018Z,101259.19
2023-09-06T00:35:16.206Z,101255.22
2023-09-06T00:38:18.564Z,101254.84
2023-09-06T00:41:21.385Z,101255.22
2023-09-06T00:44:24.144Z,101262.31
2023-09-06T00:47:26.751Z,101259.19
2023-09-06T00:50:29.575Z,101259.19
2023-09-06T00:53:33.195Z,101257.59
2023-09-06T00:56:35.524Z,101268.22
2023-09-06T00:59:38.079Z,101252.06
2023-09-06T01:02:40.560Z,101257.97
2023-09-06T01:05:46.507Z,101259.16
2023-09-06T01:08:54.007Z,101252.06
2023-09-06T01:11:56.371Z,101257.56
2023-09-06T01:14:58.708Z,101257.59
2023-09-06T01:18:03.850Z,101262.31
2023-09-06T01:21:12.329Z,101269.75
2023-09-06T01:24:15.582Z,101270.16
2023-09-06T01:27:18.155Z,101271.34
2023-09-06T01:30:20.637Z,101276.44
2023-09-06T01:33:25.839Z,101273.28
2023-09-06T01:36:29.742Z,101283.91
2023-09-06T01:39:32.109Z,101282.34
2023-09-06T01:42:34.454Z,101278.00
2023-09-06T01:45:45.129Z,101275.25
2023-09-06T01:48:48.314Z,101279.19
2023-09-06T01:51:50.716Z,101281.94
2023-09-06T01:54:53.355Z,101271.28
2023-09-06T01:57:55.828Z,101279.56
2023-09-06T02:00:58.818Z,101278.78
2023-09-06T02:04:02.918Z,101282.72
2023-09-06T02:07:05.487Z,101279.56
2023-09-06T02:10:11.575Z,101277.97
2023-09-06T02:13:14.127Z,101276.41
2023-09-06T02:16:19.121Z,101266.94
2023-09-06T02:19:21.861Z,101277.59
2023-09-06T02:22:24.277Z,101270.50
2023-09-06T02:25:33.111Z,101261.44
2023-09-06T02:28:36.572Z,101271.69
2023-09-06T02:31:39.628Z,101266.16
2023-09-06T02:34:43.184Z,101262.22
2023-09-06T02:37:45.615Z,101270.50
2023-09-06T02:40:48.431Z,101269.31
2023-09-06T02:43:50.884Z,101260.28
2023-09-06T02:46:54.519Z,101262.22
2023-09-06T02:49:57.197Z,101263.78
2023-09-06T02:52:59.609Z,101262.63
2023-09-06T02:56:02.959Z,101268.50
2023-09-06T02:59:08.667Z,101266.53
2023-09-06T03:02:14.017Z,101252.00
2023-09-06T03:05:18.810Z,101260.25
2023-09-06T03:08:22.215Z,101262.59
2023-09-06T03:11:25.517Z,101259.84
2023-09-06T03:14:31.471Z,101267.69
2023-09-06T03:17:34.251Z,101265.34
2023-09-06T03:20:45.677Z,101266.53
2023-09-06T03:24:13.530Z,101264.94
2023-09-06T03:27:17.353Z,101277.13
2023-09-06T03:30:20.871Z,101275.97
2023-09-06T03:33:29.610Z,101264.53
2023-09-06T03:36:33.293Z,101271.63
2023-09-06T03:39:42.249Z,101279.09
2023-09-06T03:42:45.231Z,101271.59
2023-09-06T03:45:53.181Z,101271.97
2023-09-06T03:48:56.120Z,101268.84
2023-09-06T03:51:58.552Z,101275.16
2023-09-06T03:55:01.044Z,101278.28
2023-09-06T03:58:08.404Z,101284.97
2023-09-06T04:01:12.795Z,101270.00
2023-09-06T04:04:17.153Z,101275.13
2023-09-06T04:07:19.710Z,101277.09
2023-09-06T04:10:22.999Z,101287.72
2023-09-06T04:13:25.410Z,101280.19
2023-09-06T04:16:28.582Z,101285.34
2023-09-06T04:19:32.762Z,101293.59
2023-09-06T04:22:35.184Z,101297.13
2023-09-06T04:25:46.237Z,101298.28
2023-09-06T04:28:55.699Z,101295.56
2023-09-06T04:31:59.749Z,101295.53
2023-09-06T04:35:03.638Z,101293.56
2023-09-06T04:38:06.525Z,101302.22
2023-09-06T04:41:09.058Z,101299.47
2023-09-06T04:44:16.910Z,101304.97
2023-09-06T04:47:19.636Z,101311.28
2023-09-06T04:50:23.085Z,101304.56
2023-09-06T04:53:26.135Z,101314.38
2023-09-06T04:56:31.234Z,101315.59
2023-09-06T04:59:35.143Z,101320.28
2023-09-06T05:02:37.599Z,101316.34
2023-09-06T05:05:41.909Z,101313.22
2023-09-06T05:08:44.462Z,101321.47
2023-09-06T05:11:52.061Z,101319.09
2023-09-06T05:14:55.271Z,101311.63
2023-09-06T05:17:57.725Z,101307.31
2023-09-06T05:21:07.063Z,101305.38
2023-09-06T05:24:11.506Z,101313.63
2023-09-06T05:27:14.797Z,101314.41
2023-09-06T05:30:17.963Z,101314.81
2023-09-06T05:33:20.752Z,101317.97
2023-09-06T05:36:24.115Z,101317.22
2023-09-06T05:39:26.562Z,101321.56
2023-09-06T05:42:29.959Z,101312.91
2023-09-06T05:45:33.071Z,101316.47
2023-09-06T05:48:35.939Z,101313.72
2023-09-06T05:51:40.935Z,101317.28
2023-09-06T05:54:43.663Z,101313.72
2023-09-06T05:57:46.196Z,101326.75
2023-09-06T06:00:54.774Z,101321.25
2023-09-06T06:03:57.284Z,101334.66
2023-09-06T06:06:59.762Z,101332.31
2023-09-06T06:10:02.468Z,101337.03
2023-09-06T06:13:06.136Z,101322.09
2023-09-06T06:16:09.737Z,101342.59
2023-09-06T06:19:12.823Z,101341.81
2023-09-06T06:22:17.850Z,101335.50
2023-09-06T06:25:20.300Z,101349.69
2023-09-06T06:28:22.911Z,101345.38
2023-09-06T06:31:25.467Z,101352.91
2023-09-06T06:34:27.917Z,101328.47
2023-09-06T06:37:30.449Z,101349.03
2023-09-06T06:40:37.228Z,101354.56
2023-09-06T06:43:39.851Z,101354.97
2023-09-06T06:46:43.024Z,101356.59
2023-09-06T06:49:45.497Z,101350.72
2023-09-06T06:52:48.120Z,101342.88
2023-09-06T06:55:50.677Z,101343.72
2023-09-06T06:58:53.467Z,101342.56
2023-09-06T07:01:55.972Z,101346.09
2023-09-06T07:04:59.244Z,101343.72
2023-09-06T07:08:05.958Z,101331.88
2023-09-06T07:11:08.622Z,101345.25
2023-09-06T07:14:11.142Z,101347.19
2023-09-06T07:17:13.711Z,101340.88
2023-09-06T07:20:16.308Z,101339.28
2023-09-06T07:23:18.867Z,101334.09
2023-09-06T07:26:22.787Z,101342.69
2023-09-06T07:29:25.476Z,101337.94
2023-09-06T07:32:27.999Z,101342.97
2023-09-06T07:35:32.624Z,101329.16
2023-09-06T07:38:39.182Z,101336.69
2023-09-06T07:41:42.848Z,101347.31
2023-09-06T07:44:45.621Z,101348.47
2023-09-06T07:47:48.158Z,101338.56
2023-09-06T07:50:51.402Z,101349.63
2023-09-06T07:53:54.955Z,101346.47
2023-09-06T07:56:57.441Z,101336.59
2023-09-06T07:59:59.993Z,101346.44
2023-09-06T08:03:02.472Z,101345.28
2023-09-06T08:06:05.617Z,101346.03
2023-09-06T08:09:08.158Z,101347.25
2023-09-06T08:12:10.926Z,101345.69
2023-09-06T08:15:13.509Z,101346.50
2023-09-06T08:18:16.035Z,101346.16
2023-09-06T08:21:18.665Z,101336.75
2023-09-06T08:24:26.355Z,101348.19
2023-09-06T08:27:36.276Z,101340.28
2023-09-06T08:30:39.984Z,101346.22
2023-09-06T08:33:46.301Z,101343.47
2023-09-06T08:36:48.736Z,101340.28
2023-09-06T08:39:54.014Z,101342.66
2023-09-06T08:42:56.814Z,101329.25
2023-09-06T08:46:00.420Z,101341.09
2023-09-06T08:49:06.926Z,101335.16
2023-09-06T08:52:10.999Z,101341.47
2023-09-06T08:55:13.686Z,101337.94
2023-09-06T08:58:16.469Z,101328.44
2023-09-06T09:01:19.055Z,101335.16
2023-09-06T09:04:21.665Z,101332.41
2023-09-06T09:07:24.203Z,101338.31
2023-09-06T09:10:30.146Z,101322.13
2023-09-06T09:13:32.667Z,101323.69
2023-09-06T09:16:35.305Z,101324.50
2023-09-06T09:19:38.679Z,101317.00
2023-09-06T09:22:41.593Z,101319.78
2023-09-06T09:25:51.071Z,101326.88
2023-09-06T09:28:53.869Z,101317.41
2023-09-06T09:32:04.300Z,101310.69
2023-09-06T09:35:11.808Z,101316.56
2023-09-06T09:38:14.272Z,101311.00
2023-09-06T09:41:17.068Z,101299.53
2023-09-06T09:44:20.752Z,101297.94
2023-09-06T09:47:47.503Z,101300.34
2023-09-06T09:50:48.277Z,101296.00
2023-09-06T09:53:51.187Z,101298.75
2023-09-06T09:57:04.782Z,101296.41
2023-09-06T10:00:10.825Z,101299.56
2023-09-06T10:03:16.175Z,101288.59
2023-09-06T10:06:19.662Z,101300.00
2023-09-06T10:09:23.393Z,101294.47
2023-09-06T10:12:26.896Z,101281.84
2023-09-06T10:15:30.133Z,101278.69
2023-09-06T10:18:33.393Z,101286.94
2023-09-06T10:21:36.163Z,101283.00
2023-09-06T10:24:39.828Z,101277.50
2023-09-06T10:27:54.382Z,101286.19
2023-09-06T10:31:03.714Z,101283.41
2023-09-06T10:34:06.492Z,101282.66
2023-09-06T10:37:09.256Z,101280.66
2023-09-06T10:40:13.824Z,101270.44
2023-09-06T10:43:17.842Z,101273.94
2023-09-06T10:46:20.282Z,101270.03
2023-09-06T10:49:28.667Z,101270.81
2023-09-06T10:52:59.858Z,101262.91
2023-09-06T10:56:04.292Z,101256.59
2023-09-06T10:59:06.701Z,101265.63
2023-09-06T11:02:29.611Z,101264.03
2023-09-06T11:05:37.380Z,101263.22
2023-09-06T11:08:40.210Z,101266.38
2023-09-06T11:11:43.573Z,101255.34
2023-09-06T11:14:50.772Z,101243.50
2023-09-06T11:18:00.142Z,101258.50
2023-09-06T11:21:03.300Z,101252.22
2023-09-06T11:24:06.018Z,101245.16
2023-09-06T11:27:22.499Z,101244.34
2023-09-06T11:30:27.893Z,101230.97
2023-09-06T11:33:31.722Z,101240.03
2023-09-06T11:36:37.754Z,101236.06
2023-09-06T11:39:43.454Z,101226.19
2023-09-06T11:42:50.482Z,101228.59
2023-09-06T11:45:54.687Z,101216.38
2023-09-06T11:48:57.125Z,101213.56
2023-09-06T11:52:01.451Z,101212.41
2023-09-06T11:55:09.569Z,101205.34
2023-09-06T11:58:18.023Z,101205.34
2023-09-06T12:01:21.491Z,101195.09
2023-09-06T12:04:24.941Z,101200.19
2023-09-06T12:07:31.259Z,101203.75
2023-09-06T12:10:35.642Z,101184.44
2023-09-06T12:13:39.762Z,101190.31
2023-09-06T12:16:42.899Z,101185.19
2023-09-06T12:19:45.581Z,101182.03
2023-09-06T12:22:48.300Z,101165.47
2023-09-06T12:25:50.723Z,101159.16
2023-09-06T12:28:53.621Z,101164.25
2023-09-06T12:31:56.090Z,101171.34
2023-09-06T12:34:58.608Z,101157.13
2023-09-06T12:38:01.023Z,101158.72
2023-09-06T12:41:06.100Z,101169.72
2023-09-06T12:44:08.627Z,101164.63
2023-09-06T12:47:11.669Z,101152.06
2023-09-06T12:50:18.385Z,101146.59
2023-09-06T12:53:22.788Z,101153.69
2023-09-06T12:56:25.200Z,101150.56
2023-09-06T12:59:27.592Z,101141.50
2023-09-06T13:02:30.077Z,101136.34
2023-09-06T13:05:32.947Z,101134.34
2023-09-06T13:08:36.297Z,101120.59
2023-09-06T13:11:39.260Z,101128.06
2023-09-06T13:14:41.684Z,101121.81
2023-09-06T13:17:44.347Z,101128.88
2023-09-06T13:20:46.872Z,101124.94
2023-09-06T13:23:49.277Z,101132.81
2023-09-06T13:26:52.467Z,101117.09
2023-09-06T13:29:56.495Z,101125.75
2023-09-06T13:32:58.930Z,101131.28
2023-09-06T13:36:01.418Z,101119.84
2023-09-06T13:39:08.741Z,101115.50
2023-09-06T13:42:11.247Z,101111.56
2023-09-06T13:45:13.705Z,101112.75
2023-09-06T13:48:16.686Z,101106.03
2023-09-06T13:51:19.857Z,101098.16
2023-09-06T13:54:22.481Z,101095.38
2023-09-06T13:57:26.723Z,101102.88
2023-09-06T14:00:29.204Z,101095.75
2023-09-06T14:03:31.840Z,101104.88
2023-09-06T14:06:34.334Z,101096.94
2023-09-06T14:09:36.887Z,101095.78
2023-09-06T14:12:40.451Z,101091.06
2023-09-06T14:15:43.222Z,101087.88
2023-09-06T14:19:05.598Z,101086.31
2023-09-06T14:22:24.105Z,101080.00
2023-09-06T14:25:46.476Z,101080.41
2023-09-06T14:28:49.766Z,101076.84
2023-09-06T14:31:54.098Z,101076.06
2023-09-06T14:34:56.653Z,101070.19
2023-09-06T14:37:59.241Z,101068.97
2023-09-06T14:41:02.027Z,101065.06
2023-09-06T14:44:05.007Z,101059.56
2023-09-06T14:47:07.628Z,101063.94
2023-09-06T14:50:10.390Z,101066.28
2023-09-06T14:53:12.869Z,101063.50
2023-09-06T14:56:16.610Z,101069.00
2023-09-06T14:59:19.286Z,101066.28
2023-09-06T15:02:22.081Z,101066.28
2023-09-06T15:05:24.615Z,101067.47
2023-09-06T15:08:27.340Z,101058.81
2023-09-06T15:11:30.028Z,101065.13
2023-09-06T15:14:32.434Z,101067.13
2023-09-06T15:17:35.426Z,101059.66
2023-09-06T15:20:38.026Z,101055.72
2023-09-06T15:23:40.537Z,101065.53
2023-09-06T15:26:42.939Z,101068.66
2023-09-06T15:29:46.184Z,101065.09
2023-09-06T15:32:48.647Z,101066.69
2023-09-06T15:35:51.134Z,101062.72
2023-09-06T15:38:53.493Z,101056.38
2023-09-06T15:41:55.854Z,101072.19
2023-09-06T15:44:58.431Z,101071.00
2023-09-06T15:48:01.051Z,101066.28
2023-09-06T15:51:03.674Z,101069.84
2023-09-06T15:54:06.128Z,101071.03
2023-09-06T15:57:09.662Z,101069.50
2023-09-06T16:00:28.686Z,101069.91
2023-09-06T16:03:34.045Z,101071.44
2023-09-06T16:06:36.853Z,101075.00
2023-09-06T16:09:39.332Z,101070.66
2023-09-06T16:12:41.818Z,101073.41
2023-09-06T16:15:44.346Z,101076.16
2023-09-06T16:18:48.476Z,101071.44
2023-09-06T16:21:52.119Z,101075.41
2023-09-06T16:24:54.778Z,101069.94
2023-09-06T16:27:57.193Z,101071.94
2023-09-06T16:31:01.238Z,101081.41
2023-09-06T16:34:05.441Z,101077.44
2023-09-06T16:37:08.118Z,101084.94
2023-09-06T16:40:12.524Z,101088.09
2023-09-06T16:43:16.602Z,101084.56
2023-09-06T16:46:19.931Z,101092.09
2023-09-06T16:49:22.697Z,101095.63
2023-09-06T16:52:25.236Z,101095.22
2023-09-06T16:55:27.709Z,101098.75
2023-09-06T16:58:30.262Z,101092.88
2023-09-06T17:01:33.403Z,101104.69
2023-09-06T17:04:35.802Z,101107.88
2023-09-06T17:07:39.189Z,101102.75
2023-09-06T17:10:41.629Z,101103.13
2023-09-06T17:13:44.010Z,101105.13
2023-09-06T17:16:46.523Z,101106.31
2023-09-06T17:19:48.991Z,101113.81
2023-09-06T17:22:51.556Z,101105.13
2023-09-06T17:25:54.961Z,101114.22
2023-09-06T17:28:57.393Z,101119.34
2023-09-06T17:32:05.221Z,101121.72
2023-09-06T17:35:08.923Z,101117.41
2023-09-06T17:38:12.987Z,101119.78
2023-09-06T17:41:16.643Z,101125.69
2023-09-06T17:44:20.280Z,101127.28
2023-09-06T17:47:22.778Z,101139.50
2023-09-06T17:50:25.239Z,101135.19
2023-09-06T17:53:29.157Z,101144.25
2023-09-06T17:56:33.184Z,101144.66
2023-09-06T17:59:35.598Z,101149.00
2023-09-06T18:02:39.147Z,101153.34
2023-09-06T18:05:46.430Z,101160.06
2023-09-06T18:08:49.020Z,101162.44
2023-09-06T18:11:53.938Z,101166.78
2023-09-06T18:14:58.221Z,101161.66
2023-09-06T18:18:02.659Z,101179.00
2023-09-06T18:21:06.562Z,101171.53
2023-09-06T18:24:14.348Z,101177.44
2023-09-06T18:27:16.856Z,101175.09
2023-09-06T18:30:25.774Z,101176.28
2023-09-06T18:33:29.227Z,101179.81
2023-09-06T18:36:32.809Z,101169.19
2023-09-06T18:39:35.278Z,101175.50
2023-09-06T18:42:37.617Z,101184.97
2023-09-06T18:45:41.994Z,101182.22
2023-09-06T18:48:44.522Z,101186.94
2023-09-06T18:51:47.112Z,101198.75
2023-09-06T18:54:49.575Z,101198.38
2023-09-06T18:58:04.940Z,101196.41
2023-09-06T19:01:13.251Z,101192.47
2023-09-06T19:04:15.836Z,101194.78
2023-09-06T19:07:18.294Z,101191.25
2023-09-06T19:10:20.697Z,101198.75
2023-09-06T19:13:23.893Z,101203.47
2023-09-06T19:16:29.245Z,101208.19
2023-09-06T19:19:35.623Z,101199.53
2023-09-06T19:22:38.537Z,101194.41
2023-09-06T19:25:43.567Z,101194.03
2023-09-06T19:28:45.980Z,101209.00
2023-09-06T19:31:51.886Z,101207.41
2023-09-06T19:34:54.360Z,101204.25
2023-09-06T19:37:56.863Z,101201.50
2023-09-06T19:40:59.358Z,101210.56
2023-09-06T19:44:02.019Z,101204.66
2023-09-06T19:47:04.754Z,101212.16
2023-09-06T19:50:08.157Z,101210.19
2023-09-06T19:53:10.764Z,101210.19
2023-09-06T19:56:16.036Z,101217.66
2023-09-06T19:59:18.654Z,101216.47
2023-09-06T20:02:21.539Z,101218.44
2023-09-06T20:05:25.442Z,101214.50
2023-09-06T20:08:28.255Z,101214.50
2023-09-06T20:11:32.573Z,101220.03
2023-09-06T20:14:35.017Z,101223.16
2023-09-06T20:17:37.681Z,101217.66
2023-09-06T20:20:41.015Z,101223.16
2023-09-06T20:23:44.104Z,101217.66
2023-09-06T20:26:46.588Z,101226.72
2023-09-06T20:29:49.145Z,101229.06
2023-09-06T20:32:51.581Z,101227.09
2023-09-06T20:35:54.110Z,101228.28
2023-09-06T20:38:56.692Z,101226.72
2023-09-06T20:41:59.144Z,101236.56
2023-09-06T20:45:01.629Z,101225.13
2023-09-06T20:48:08.874Z,101230.66
2023-09-06T20:51:14.790Z,101234.97
2023-09-06T20:54:17.218Z,101228.66
2023-09-06T20:57:19.694Z,101232.63
2023-09-06T21:00:22.204Z,101226.69
2023-09-06T21:03:26.149Z,101234.19
2023-09-06T21:06:28.651Z,101238.13
2023-09-06T21:09:30.996Z,101234.19
2023-09-06T21:12:34.961Z,101240.88
2023-09-06T21:15:37.393Z,101239.69
2023-09-06T21:18:39.937Z,101236.53
2023-09-06T21:21:42.365Z,101235.75
2023-09-06T21:24:44.809Z,101231.03
2023-09-06T21:27:47.235Z,101230.63
2023-09-06T21:30:49.948Z,101232.19
2023-09-06T21:33:52.387Z,101242.84
2023-09-06T21:36:54.932Z,101244.41
2023-09-06T21:39:58.482Z,101247.16
2023-09-06T21:43:15.969Z,101245.59
2023-09-06T21:46:19.847Z,101243.63
2023-09-06T21:49:22.529Z,101249.50
2023-09-06T21:52:24.934Z,101246.75
2023-09-06T21:55:27.389Z,101242.03
2023-09-06T21:58:30.034Z,101244.00
2023-09-06T22:01:51.316Z,101247.13
2023-09-06T22:05:12.418Z,101246.75
2023-09-06T22:08:33.549Z,101243.22
2023-09-06T22:11:54.381Z,101243.59
2023-09-06T22:14:58.157Z,101246.75
2023-09-06T22:18:00.738Z,101235.31
2023-09-06T22:21:06.273Z,101249.88
2023-09-06T22:24:10.242Z,101258.94
2023-09-06T22:27:12.637Z,101250.66
2023-09-06T22:30:15.434Z,101256.19
2023-09-06T22:33:17.871Z,101255.38
2023-09-06T22:36:20.227Z,101256.97
2023-09-06T22:39:22.607Z,101260.50
2023-09-06T22:42:25.056Z,101262.88
2023-09-06T22:45:28.684Z,101253.00
2023-09-06T22:48:44.366Z,101262.44
2023-09-06T22:51:53.584Z,101260.09
2023-09-06T22:54:56.159Z,101251.41
2023-09-06T22:57:59.403Z,101253.75
2023-09-06T23:01:06.665Z,101253.00
2023-09-06T23:04:09.143Z,101258.09
2023-09-06T23:07:14.970Z,101254.53
2023-09-06T23:10:18.075Z,101261.63
2023-09-06T23:13:23.988Z,101249.81
2023-09-06T23:16:26.574Z,101256.13
2023-09-06T23:19:33.627Z,101253.75
2023-09-06T23:22:42.088Z,101238.41
2023-09-06T23:25:51.407Z,101256.13
2023-09-06T23:28:55.125Z,101247.44
2023-09-06T23:32:00.213Z,101251.78
2023-09-06T23:35:07.692Z,101243.53
2023-09-06T23:38:10.883Z,101250.59
2023-09-06T23:41:17.565Z,101245.50
2023-09-06T23:44:20.645Z,101246.66
2023-09-06T23:47:23.425Z,101254.53
2023-09-06T23:50:28.041Z,101256.09
2023-09-06T23:53:30.528Z,101263.59
2023-09-06T23:56:32.960Z,101253.72
2023-09-06T23:59:35.382Z,101262.00
